Time;durP1;ratioP1;P1;durP2;ratioP2;P2;SDS_P1;SDS_P2;PMS_P1;PMS_P2;Temp;Humidity;BMP_temperature;BMP_pressure;BME280_temperature;BME280_humidity;BME280_pressure;Samples;Min_cycle;Max_cycle;Signal;HPM_P1;HPM_P2
2023/04/03 00:01:26;;;;;;;10.83;7.47;;;;;;;0.48;100.00;102811.09;4949973;28;20098;-71
2023/04/03 00:03:52;;;;;;;10.50;6.93;;;;;;;0.46;100.00;102817.69;4961732;28;20023;-72
2023/04/03 00:06:17;;;;;;;9.17;7.23;;;;;;;0.43;100.00;102815.69;4973681;28;20034;-72
2023/04/03 00:08:43;;;;;;;7.20;6.33;;;;;;;0.43;100.00;102812.25;4987157;28;20494;-72
2023/04/03 00:11:09;;;;;;;7.50;6.70;;;;;;;0.41;100.00;102821.41;4958360;28;20078;-72
2023/04/03 00:13:34;;;;;;;6.87;6.07;;;;;;;0.34;100.00;102818.19;4986306;28;20054;-71
2023/04/03 00:16:00;;;;;;;8.47;6.80;;;;;;;0.32;100.00;102821.31;4988031;28;20471;-72
2023/04/03 00:18:25;;;;;;;7.40;6.63;;;;;;;0.33;100.00;102820.56;4989280;28;20022;-71
2023/04/03 00:20:50;;;;;;;7.77;6.73;;;;;;;0.34;100.00;102817.28;4983552;28;20038;-71
2023/04/03 00:23:16;;;;;;;8.00;6.87;;;;;;;0.35;100.00;102816.53;4989357;28;20048;-71
2023/04/03 00:25:41;;;;;;;8.37;6.07;;;;;;;0.32;100.00;102818.78;4985471;28;20062;-71
2023/04/03 00:28:06;;;;;;;8.90;6.17;;;;;;;0.31;100.00;102817.88;4983834;28;20022;-71
2023/04/03 00:30:32;;;;;;;7.00;6.20;;;;;;;0.31;100.00;102824.59;4986483;28;20085;-71
2023/04/03 00:32:58;;;;;;;7.70;6.43;;;;;;;0.30;100.00;102825.34;4981197;28;20403;-71
2023/04/03 00:35:25;;;;;;;8.60;6.47;;;;;;;0.31;100.00;102824.59;4988472;28;20022;-72
2023/04/03 00:37:52;;;;;;;7.03;5.70;;;;;;;0.29;100.00;102828.66;4970131;28;20235;-70
2023/04/03 00:40:17;;;;;;;7.63;5.83;;;;;;;0.28;100.00;102831.94;4984451;28;20538;-70
2023/04/03 00:42:46;;;;;;;6.87;5.60;;;;;;;0.27;100.00;102830.16;4969539;28;20114;-71
2023/04/03 00:45:17;;;;;;;8.47;5.90;;;;;;;0.22;100.00;102827.09;4961292;28;20027;-71
2023/04/03 00:47:43;;;;;;;;;;;;;;;0.20;100.00;102826.00;4962080;28;20030;-71
2023/04/03 00:50:08;;;;;;;7.33;5.20;;;;;;;0.15;100.00;102827.16;4961485;28;20362;-71
2023/04/03 00:52:34;;;;;;;7.07;5.97;;;;;;;0.12;100.00;102830.31;4959112;28;20081;-71
2023/04/03 00:55:03;;;;;;;7.27;5.70;;;;;;;0.07;100.00;102837.47;4969613;28;20025;-71
2023/04/03 00:57:31;;;;;;;7.70;5.50;;;;;;;0.04;100.00;102837.13;4957031;28;20031;-71
2023/04/03 01:00:01;;;;;;;9.20;6.10;;;;;;;0.01;100.00;102841.00;4970197;28;20518;-71
2023/04/03 01:02:27;;;;;;;8.57;6.27;;;;;;;-0.02;100.00;102839.03;4954609;28;20024;-71
2023/04/03 01:04:52;;;;;;;7.07;6.07;;;;;;;-0.05;100.00;102834.50;4958112;28;20022;-71
2023/04/03 01:07:27;;;;;;;6.53;5.90;;;;;;;-0.07;100.00;102837.66;4964617;28;20624;-71
2023/04/03 01:09:57;;;;;;;7.00;5.33;;;;;;;-0.10;100.00;102835.66;4959646;28;20195;-71
2023/04/03 01:12:26;;;;;;;6.33;5.77;;;;;;;-0.15;100.00;102841.91;4954722;28;20019;-71
2023/04/03 01:14:57;;;;;;;6.13;5.53;;;;;;;-0.19;100.00;102842.31;4972154;28;20129;-71
2023/04/03 01:17:31;;;;;;;;;;;;;;;-0.19;100.00;102847.41;4962046;28;20082;-71
2023/04/03 01:20:11;;;;;;;8.70;5.77;;;;;;;-0.22;100.00;102841.97;4962622;28;19910;-71
2023/04/03 01:23:05;;;;;;;8.02;6.28;;;;;;;-0.22;100.00;102841.97;4979173;28;20482;-71
2023/04/03 01:25:31;;;;;;;6.50;5.67;;;;;;;-0.25;100.00;102851.09;4940943;28;20070;-71
2023/04/03 01:27:56;;;;;;;7.63;6.17;;;;;;;-0.26;100.00;102843.28;4969006;28;20470;-70
2023/04/03 01:30:29;;;;;;;7.03;6.37;;;;;;;-0.28;100.00;102849.84;4960529;28;20027;-71
2023/04/03 01:32:55;;;;;;;6.73;6.13;;;;;;;-0.31;100.00;102847.91;4974081;28;20073;-71
2023/04/03 01:35:20;;;;;;;6.70;6.00;;;;;;;-0.32;100.00;102846.06;4977084;28;20453;-71
2023/04/03 01:37:45;;;;;;;6.30;5.70;;;;;;;-0.35;100.00;102847.38;4970566;28;20035;-71
2023/04/03 01:40:11;;;;;;;8.23;5.87;;;;;;;-0.36;100.00;102849.06;4978959;28;20032;-71
2023/04/03 01:42:36;;;;;;;6.60;6.00;;;;;;;-0.36;100.00;102849.06;4960575;28;20357;-71
2023/04/03 01:45:01;;;;;;;6.50;5.67;;;;;;;-0.39;100.00;102848.69;4978312;28;20262;-71
2023/04/03 01:47:27;;;;;;;6.37;5.77;;;;;;;-0.44;100.00;102844.75;4969672;28;20019;-71
2023/04/03 01:49:52;;;;;;;7.17;6.20;;;;;;;-0.45;100.00;102848.03;4977520;28;20035;-71
2023/04/03 01:52:17;;;;;;;12.00;6.23;;;;;;;-0.45;100.00;102846.38;4963064;28;20579;-71
2023/04/03 01:54:42;;;;;;;6.73;6.10;;;;;;;-0.45;100.00;102851.47;4981699;28;20037;-71
2023/04/03 01:57:08;;;;;;;6.77;6.13;;;;;;;-0.44;100.00;102848.19;4973309;28;20015;-71
2023/04/03 01:59:33;;;;;;;8.23;6.20;;;;;;;-0.43;100.00;102846.56;4978583;28;20026;-70
2023/04/03 02:01:58;;;;;;;7.07;6.37;;;;;;;-0.43;100.00;102849.13;4975587;28;20015;-71
2023/04/03 02:04:24;;;;;;;7.40;6.60;;;;;;;-0.44;100.00;102854.94;4977768;28;20027;-71
2023/04/03 02:06:49;;;;;;;7.50;6.80;;;;;;;-0.47;100.00;102846.97;4977239;28;20113;-71
2023/04/03 02:09:14;;;;;;;6.77;5.93;;;;;;;-0.45;100.00;102848.03;4979825;28;20030;-71
2023/04/03 02:11:40;;;;;;;7.13;5.83;;;;;;;-0.49;100.00;102850.22;4982417;28;20042;-71
2023/04/03 02:14:06;;;;;;;7.43;6.23;;;;;;;-0.48;100.00;102856.22;4978875;28;20050;-71
2023/04/03 02:16:31;;;;;;;6.67;5.87;;;;;;;-0.48;100.00;102853.69;4983174;28;20060;-71
2023/04/03 02:18:57;;;;;;;6.20;5.67;;;;;;;-0.48;100.00;102853.69;4970931;28;20382;-71
2023/04/03 02:21:22;;;;;;;6.40;5.60;;;;;;;-0.50;100.00;102852.59;4974839;28;20022;-71
2023/04/03 02:23:47;;;;;;;7.67;6.97;;;;;;;-0.51;100.00;102851.72;4970597;28;20098;-71
2023/04/03 02:26:15;;;;;;;8.63;6.23;;;;;;;-0.52;100.00;102851.56;4975285;28;20532;-70
2023/04/03 02:28:43;;;;;;;6.80;6.10;;;;;;;-0.52;100.00;102862.63;4977644;28;20094;-70
2023/04/03 02:31:10;;;;;;;6.63;5.97;;;;;;;-0.52;100.00;102857.53;4973321;28;20030;-71
2023/04/03 02:33:36;;;;;;;8.07;6.13;;;;;;;-0.49;100.00;102854.44;4969702;28;20031;-71
2023/04/03 02:36:03;;;;;;;7.83;5.73;;;;;;;-0.44;100.00;102860.03;4961635;28;20027;-71
2023/04/03 02:38:28;;;;;;;7.53;5.27;;;;;;;-0.42;100.00;102861.09;4970268;28;20046;-72
2023/04/03 02:41:00;;;;;;;6.67;5.67;;;;;;;-0.40;100.00;102862.19;4957696;28;20031;-70
2023/04/03 02:43:25;;;;;;;7.77;5.40;;;;;;;-0.39;100.00;102858.88;4956398;28;20316;-71
2023/04/03 02:45:50;;;;;;;5.40;4.87;;;;;;;-0.36;100.00;102864.34;4964399;28;20034;-71
2023/04/03 02:48:16;;;;;;;6.40;5.03;;;;;;;-0.33;100.00;102872.31;4971089;28;20356;-71
2023/04/03 02:50:41;;;;;;;6.17;4.50;;;;;;;-0.29;100.00;102876.09;4960760;28;20030;-71
2023/04/03 02:53:07;;;;;;;6.07;4.80;;;;;;;-0.30;100.00;102870.09;4980886;28;20026;-71
2023/04/03 02:55:32;;;;;;;4.87;4.40;;;;;;;-0.29;100.00;102871.00;4971588;28;20031;-70
2023/04/03 02:57:57;;;;;;;5.17;4.67;;;;;;;-0.28;100.00;102872.81;4973074;28;20026;-71
2023/04/03 03:00:22;;;;;;;5.57;4.97;;;;;;;-0.30;100.00;102867.53;4970157;28;20046;-71
2023/04/03 03:02:49;;;;;;;5.37;4.87;;;;;;;-0.29;100.00;102871.88;4977839;28;20483;-71
2023/04/03 03:05:14;;;;;;;5.23;4.67;;;;;;;-0.31;100.00;102875.03;4978186;28;20102;-71
2023/04/03 03:07:39;;;;;;;5.40;4.07;;;;;;;-0.31;100.00;102878.47;4976033;28;20026;-72
2023/04/03 03:10:05;;;;;;;4.97;4.27;;;;;;;-0.31;100.00;102877.56;4966613;28;20082;-71
2023/04/03 03:12:30;;;;;;;5.60;4.40;;;;;;;-0.32;100.00;102868.09;4975903;28;20026;-70
2023/04/03 03:14:56;;;;;;;5.87;4.23;;;;;;;-0.32;100.00;102868.09;4970613;28;20408;-71
2023/04/03 03:17:21;;;;;;;6.27;4.03;;;;;;;-0.32;100.00;102869.00;4964653;28;20035;-70
2023/04/03 03:19:46;;;;;;;6.50;4.17;;;;;;;-0.32;100.00;102860.44;4966203;28;20026;-71
2023/04/03 03:22:11;;;;;;;4.77;3.77;;;;;;;-0.31;100.00;102868.28;4967489;28;20030;-71
2023/04/03 03:24:37;;;;;;;5.73;4.70;;;;;;;-0.30;100.00;102865.00;4961457;28;20485;-70
2023/04/03 03:27:02;;;;;;;6.13;3.80;;;;;;;-0.31;100.00;102868.28;4954137;28;20023;-70
2023/04/03 03:29:28;;;;;;;6.30;3.67;;;;;;;-0.31;100.00;102868.28;4971459;28;20030;-70
2023/04/03 03:31:53;;;;;;;6.60;3.90;;;;;;;-0.31;100.00;102878.47;4955390;28;20481;-71
2023/04/03 03:34:18;;;;;;;5.20;3.37;;;;;;;-0.33;100.00;102874.84;4962745;28;20029;-71
2023/04/03 03:36:43;;;;;;;4.47;3.73;;;;;;;-0.33;100.00;102876.50;4966797;28;20034;-70
2023/04/03 03:39:10;;;;;;;4.20;3.37;;;;;;;-0.34;100.00;102880.66;4966545;28;20069;-71
2023/04/03 03:41:35;;;;;;;5.13;3.40;;;;;;;-0.35;100.00;102878.88;4961820;28;20023;-71
2023/04/03 03:44:00;;;;;;;5.17;3.80;;;;;;;-0.34;100.00;102878.13;4964237;28;20032;-71
2023/04/03 03:46:26;;;;;;;5.87;3.30;;;;;;;-0.31;100.00;102877.56;4961732;28;20379;-71
2023/04/03 03:48:51;;;;;;;4.57;3.30;;;;;;;-0.29;100.00;102892.28;4963251;28;20677;-71
2023/04/03 03:51:16;;;;;;;4.80;3.03;;;;;;;-0.26;100.00;102894.25;4976990;28;20023;-71
2023/04/03 03:53:42;;;;;;;4.83;3.00;;;;;;;-0.28;100.00;102903.38;4966720;28;20035;-71
2023/04/03 03:56:07;;;;;;;5.03;3.13;;;;;;;-0.30;100.00;102895.56;4965778;28;20022;-71
2023/04/03 03:58:33;;;;;;;4.07;3.03;;;;;;;-0.33;100.00;102897.78;4976367;28;20041;-70
2023/04/03 04:01:05;;;;;;;4.30;3.03;;;;;;;-0.34;100.00;102898.50;4966553;28;20027;-70
2023/04/03 04:03:30;;;;;;;4.23;3.00;;;;;;;-0.39;100.00;102894.56;4958454;28;20037;-71
2023/04/03 04:05:56;;;;;;;4.57;2.70;;;;;;;-0.40;100.00;102897.84;4972139;28;20384;-70
2023/04/03 04:08:22;;;;;;;4.63;3.30;;;;;;;-0.41;100.00;102898.56;4956415;28;20022;-71
2023/04/03 04:10:47;;;;;;;3.60;3.10;;;;;;;-0.42;100.00;102899.31;4957743;28;20133;-72
2023/04/03 04:13:12;;;;;;;3.37;2.87;;;;;;;-0.44;100.00;102898.25;4955487;28;20027;-70
2023/04/03 04:15:38;;;;;;;4.57;2.83;;;;;;;-0.46;100.00;102903.19;4969719;28;20481;-71
2023/04/03 04:18:03;;;;;;;3.87;2.70;;;;;;;-0.49;100.00;102900.28;4954168;28;20023;-71
2023/04/03 04:20:28;;;;;;;3.83;2.87;;;;;;;-0.49;100.00;102907.94;4971066;28;20373;-71
2023/04/03 04:22:54;;;;;;;4.67;3.10;;;;;;;-0.51;100.00;102904.31;4960903;28;20500;-70
2023/04/03 04:25:19;;;;;;;4.93;2.53;;;;;;;-0.55;100.00;102903.06;4955193;28;20023;-71
2023/04/03 04:27:44;;;;;;;3.57;2.57;;;;;;;-0.57;100.00;102902.00;4986098;28;20027;-71
2023/04/03 04:30:10;;;;;;;4.57;3.10;;;;;;;-0.57;100.00;102904.53;4970736;28;20041;-71
2023/04/03 04:32:36;;;;;;;2.90;2.20;;;;;;;-0.60;100.00;102901.66;4953686;28;20030;-70
2023/04/03 04:35:02;;;;;;;3.87;3.23;;;;;;;-0.61;100.00;102899.81;4954308;28;20411;-70
2023/04/03 04:37:27;;;;;;;2.63;2.30;;;;;;;-0.62;100.00;102891.31;4961447;28;20026;-70
2023/04/03 04:39:53;;;;;;;4.93;2.50;;;;;;;-0.61;100.00;102892.19;4964387;28;20081;-69
2023/04/03 04:42:18;;;;;;;4.57;2.87;;;;;;;-0.61;100.00;102897.28;4972480;28;20149;-71
2023/04/03 04:44:43;;;;;;;3.77;2.40;;;;;;;-0.59;100.00;102900.91;4971290;28;20030;-71
2023/04/03 04:47:09;;;;;;;5.90;2.67;;;;;;;-0.57;100.00;102903.63;4964758;28;20479;-71
2023/04/03 04:49:34;;;;;;;3.03;2.30;;;;;;;-0.57;100.00;102909.63;4957237;28;20491;-70
2023/04/03 04:51:59;;;;;;;3.73;2.70;;;;;;;-0.58;100.00;102912.94;4990102;28;20086;-71
2023/04/03 04:54:25;;;;;;;6.37;2.50;;;;;;;-0.58;100.00;102910.38;4987060;28;20034;-71
2023/04/03 04:56:50;;;;;;;4.93;2.37;;;;;;;-0.57;100.00;102919.81;4985629;28;20030;-70
2023/04/03 04:59:15;;;;;;;3.60;2.27;;;;;;;-0.54;100.00;102920.16;4981210;28;20367;-70
2023/04/03 05:01:40;;;;;;;3.80;2.47;;;;;;;-0.51;100.00;102925.59;4974704;28;20026;-71
2023/04/03 05:04:06;;;;;;;4.33;2.57;;;;;;;-0.50;100.00;102922.31;4988471;28;20346;-70
2023/04/03 05:06:32;;;;;;;4.90;2.20;;;;;;;-0.46;100.00;102920.09;4987375;28;20026;-71
2023/04/03 05:08:58;;;;;;;6.70;2.53;;;;;;;-0.44;100.00;102921.16;4988760;28;20496;-70
2023/04/03 05:11:24;;;;;;;4.53;2.20;;;;;;;-0.42;100.00;102930.81;4988620;28;20022;-70
2023/04/03 05:13:49;;;;;;;3.70;2.07;;;;;;;-0.39;100.00;102926.03;4989035;28;20046;-70
2023/04/03 05:16:14;;;;;;;3.30;2.20;;;;;;;-0.37;100.00;102926.22;4986230;28;20022;-71
2023/04/03 05:18:40;;;;;;;4.77;2.60;;;;;;;-0.35;100.00;102936.56;4981554;28;20025;-71
2023/04/03 05:21:05;;;;;;;4.10;2.00;;;;;;;-0.34;100.00;102929.09;4967482;28;20023;-71
2023/04/03 05:23:30;;;;;;;3.67;1.73;;;;;;;-0.33;100.00;102925.81;4979452;28;20070;-71
2023/04/03 05:25:56;;;;;;;4.27;2.23;;;;;;;-0.31;100.00;102924.34;4979755;28;20044;-71
2023/04/03 05:28:21;;;;;;;4.83;2.13;;;;;;;-0.29;100.00;102922.84;4978653;28;20034;-71
2023/04/03 05:30:56;;;;;;;2.90;1.70;;;;;;;-0.27;100.00;102926.47;4978796;28;20407;-70
2023/04/03 05:33:22;;;;;;;3.17;2.20;;;;;;;-0.23;100.00;102934.50;4974568;28;20375;-71
2023/04/03 05:35:47;;;;;;;3.87;2.07;;;;;;;-0.21;100.00;102940.63;4967177;28;20039;-71
2023/04/03 05:38:12;;;;;;;3.57;2.17;;;;;;;-0.19;100.00;102941.72;4978510;28;20022;-71
2023/04/03 05:40:38;;;;;;;3.43;2.13;;;;;;;-0.18;100.00;102941.00;4984112;28;20078;-71
2023/04/03 05:43:03;;;;;;;4.13;1.90;;;;;;;-0.18;100.00;102944.41;4974495;28;20050;-71
2023/04/03 05:45:30;;;;;;;3.23;1.70;;;;;;;-0.15;100.00;102951.50;4979038;28;20088;-72
2023/04/03 05:47:55;;;;;;;2.60;1.80;;;;;;;-0.11;100.00;102948.56;4988968;28;20180;-71
2023/04/03 05:50:21;;;;;;;3.53;2.00;;;;;;;-0.06;100.00;102947.44;4981041;28;20438;-71
2023/04/03 05:52:49;;;;;;;5.80;2.23;;;;;;;0.02;100.00;102949.91;4962000;28;20110;-71
2023/04/03 05:55:15;;;;;;;3.03;1.60;;;;;;;0.09;100.00;102947.28;4975183;28;20542;-72
2023/04/03 05:57:40;;;;;;;4.73;2.00;;;;;;;0.19;100.00;102950.09;4977528;28;20035;-71
2023/04/03 06:00:09;;;;;;;3.27;1.93;;;;;;;0.30;100.00;102948.72;4970465;28;20031;-72
2023/04/03 06:02:35;;;;;;;3.77;1.73;;;;;;;0.39;100.00;102948.78;4953564;28;20047;-72
2023/04/03 06:05:00;;;;;;;3.87;1.70;;;;;;;0.50;100.00;102952.50;4955615;28;20104;-72
2023/04/03 06:07:28;;;;;;;3.87;1.93;;;;;;;0.61;100.00;102956.22;4971336;28;20024;-71
2023/04/03 06:09:55;;;;;;;6.00;2.07;;;;;;;0.73;100.00;102955.69;4985658;28;20080;-72
2023/04/03 06:12:21;;;;;;;3.13;2.17;;;;;;;0.86;100.00;102960.44;4971071;28;20030;-72
2023/04/03 06:14:47;;;;;;;6.90;2.70;;;;;;;0.95;100.00;102961.44;4966190;28;20046;-72
2023/04/03 06:17:13;;;;;;;4.33;1.70;;;;;;;1.07;100.00;102954.13;4982928;28;20423;-72
2023/04/03 06:19:39;;;;;;;3.50;1.50;;;;;;;1.19;100.00;102960.53;4977548;28;20464;-72
2023/04/03 06:22:04;;;;;;;3.23;1.60;;;;;;;1.35;100.00;102971.47;4981147;28;20096;-71
2023/04/03 06:24:30;;;;;;;3.83;1.43;;;;;;;1.46;100.00;102973.47;4968444;28;20029;-71
2023/04/03 06:27:01;;;;;;;3.93;1.70;;;;;;;1.60;100.00;102974.88;4975735;28;20105;-73
2023/04/03 06:29:27;;;;;;;;;;;;;;;1.75;100.00;102982.31;4968111;28;20407;-72
2023/04/03 06:31:52;;;;;;;1.97;1.30;;;;;;;1.84;100.00;102972.13;4983796;28;19910;-72
2023/04/03 06:34:17;;;;;;;2.40;1.43;;;;;;;1.96;100.00;102973.38;4971612;28;20023;-72
2023/04/03 06:36:44;;;;;;;3.40;1.50;;;;;;;2.10;100.00;102979.00;4981345;28;20034;-70
2023/04/03 06:39:15;;;;;;;3.57;1.67;;;;;;;2.25;100.00;102977.06;4969395;28;20113;-71
2023/04/03 06:41:40;;;;;;;4.55;1.70;;;;;;;2.37;100.00;102978.31;4965578;28;20093;-71
2023/04/03 06:44:06;;;;;;;2.43;1.43;;;;;;;2.51;100.00;102972.03;4958570;28;20023;-71
2023/04/03 06:46:31;;;;;;;4.77;2.10;;;;;;;2.69;100.00;102977.16;4963523;28;20098;-72
2023/04/03 06:48:56;;;;;;;3.40;1.90;;;;;;;2.89;100.00;102978.22;4951379;28;20027;-71
2023/04/03 06:51:25;;;;;;;3.97;2.07;;;;;;;3.08;100.00;102974.84;4958388;28;20026;-71
2023/04/03 06:53:52;;;;;;;3.63;1.30;;;;;;;3.24;100.00;102987.50;4961122;28;20021;-72
2023/04/03 06:56:18;;;;;;;6.43;1.90;;;;;;;3.29;100.00;102993.97;4953827;28;20534;-71
2023/04/03 06:58:44;;;;;;;4.63;1.67;;;;;;;3.58;100.00;102990.72;4960313;28;20035;-70
2023/04/03 07:01:11;;;;;;;4.03;1.80;;;;;;;3.86;100.00;102987.31;4950348;28;20038;-70
2023/04/03 07:03:37;;;;;;;4.05;1.52;;;;;;;4.29;100.00;102997.22;4963128;28;20019;-72
2023/04/03 07:06:03;;;;;;;3.53;1.48;;;;;;;4.62;100.00;102985.69;4973000;28;20434;-71
2023/04/03 07:08:29;;;;;;;3.53;1.45;;;;;;;4.96;100.00;102992.97;4979052;28;20084;-71
2023/04/03 07:10:54;;;;;;;3.83;1.55;;;;;;;5.21;99.36;102996.81;4975458;28;20033;-70
2023/04/03 07:13:20;;;;;;;3.35;1.50;;;;;;;5.46;99.26;102996.41;4974991;28;20483;-71
2023/04/03 07:15:45;;;;;;;2.80;1.67;;;;;;;5.69;95.70;103005.22;4975414;28;20023;-71
2023/04/03 07:18:10;;;;;;;2.83;1.48;;;;;;;5.88;92.15;103006.03;4974502;28;20557;-71
2023/04/03 07:20:36;;;;;;;4.38;1.90;;;;;;;5.91;88.69;103002.84;4972431;28;20024;-71
2023/04/03 07:23:01;;;;;;;2.97;1.25;;;;;;;6.17;89.90;103005.88;4970370;28;20074;-71
2023/04/03 07:25:27;;;;;;;6.20;1.80;;;;;;;6.13;86.11;103009.88;4985380;28;20018;-71
2023/04/03 07:27:54;;;;;;;2.45;1.48;;;;;;;6.59;87.70;103002.53;4979330;28;20477;-71
2023/04/03 07:30:19;;;;;;;5.20;1.90;;;;;;;6.80;81.61;103006.75;4983262;28;20416;-71
2023/04/03 07:32:45;;;;;;;4.88;1.70;;;;;;;7.20;82.74;103004.84;4971095;28;20027;-72
2023/04/03 07:35:11;;;;;;;3.50;1.50;;;;;;;7.59;80.21;103008.69;4967695;28;20035;-71
2023/04/03 07:37:36;;;;;;;5.18;1.45;;;;;;;7.76;76.35;103015.16;4973161;28;20026;-71
2023/04/03 07:40:03;;;;;;;3.30;1.65;;;;;;;8.10;76.14;103020.38;4965140;28;20551;-71
2023/04/03 07:42:28;;;;;;;4.72;2.08;;;;;;;8.42;74.04;103023.63;4975941;28;20096;-72
2023/04/03 07:44:54;;;;;;;3.33;1.42;;;;;;;8.73;70.72;103022.47;4969453;28;20027;-72
2023/04/03 07:47:20;;;;;;;4.95;1.60;;;;;;;9.01;71.39;103017.66;4975546;28;20594;-72
2023/04/03 07:49:46;;;;;;;3.80;1.33;;;;;;;8.65;68.20;103022.81;4969610;28;20423;-71
2023/04/03 07:52:14;;;;;;;3.35;1.58;;;;;;;8.93;69.61;103023.06;4973603;28;20025;-72
2023/04/03 07:54:39;;;;;;;4.22;1.23;;;;;;;9.06;68.43;103025.78;4954617;28;20051;-72
2023/04/03 07:57:05;;;;;;;3.25;1.40;;;;;;;9.21;68.03;103036.34;4975351;28;20046;-72
2023/04/03 07:59:30;;;;;;;4.35;1.25;;;;;;;9.28;66.25;103027.34;4966918;28;20537;-71
2023/04/03 08:01:56;;;;;;;4.40;1.67;;;;;;;9.47;65.23;103028.66;4970052;28;20438;-71
2023/04/03 08:04:22;;;;;;;3.22;1.63;;;;;;;9.55;62.90;103031.81;4972186;28;20532;-73
2023/04/03 08:06:47;;;;;;;3.05;1.15;;;;;;;9.68;63.44;103031.88;4969399;28;20580;-72
2023/04/03 08:09:15;;;;;;;4.90;1.42;;;;;;;9.70;63.60;103027.72;4965343;28;20129;-72
2023/04/03 08:11:40;;;;;;;3.67;1.60;;;;;;;9.68;64.18;103033.56;4976684;28;20070;-73
2023/04/03 08:14:06;;;;;;;2.20;1.27;;;;;;;9.80;63.12;103028.38;4972129;28;20471;-72
2023/04/03 08:16:31;;;;;;;3.13;1.45;;;;;;;9.51;62.57;103028.09;4969082;28;20174;-72
2023/04/03 08:18:56;;;;;;;3.60;1.83;;;;;;;9.53;60.85;103033.38;4976051;28;20091;-71
2023/04/03 08:21:22;;;;;;;3.95;1.50;;;;;;;9.81;60.41;103033.66;4966051;28;20106;-72
2023/04/03 08:23:50;;;;;;;4.32;1.42;;;;;;;9.81;60.08;103027.56;4979963;28;20030;-71
2023/04/03 08:26:18;;;;;;;3.28;1.30;;;;;;;9.56;58.83;103034.50;4980684;28;20093;-71
2023/04/03 08:28:44;;;;;;;2.40;1.40;;;;;;;9.70;59.05;103031.97;4971927;28;20239;-72
2023/04/03 08:31:13;;;;;;;3.83;1.02;;;;;;;9.68;59.27;103036.16;4974686;28;20510;-71
2023/04/03 08:33:39;;;;;;;2.95;1.25;;;;;;;9.82;58.61;103035.44;4976968;28;20022;-71
2023/04/03 08:36:07;;;;;;;3.38;1.02;;;;;;;10.13;58.94;103034.09;4972919;28;20023;-71
2023/04/03 08:38:33;;;;;;;1.67;0.90;;;;;;;10.01;55.36;103035.81;4965629;28;20030;-71
2023/04/03 08:41:02;;;;;;;2.15;1.20;;;;;;;9.87;55.86;103034.88;4966142;28;20015;-71
2023/04/03 08:43:54;;;;;;;3.83;1.35;;;;;;;9.71;53.20;103044.16;4967387;28;20082;-71
2023/04/03 08:46:23;;;;;;;1.77;1.15;;;;;;;8.75;52.79;103045.09;4976987;28;20081;-72
2023/04/03 08:48:50;;;;;;;3.58;1.10;;;;;;;8.28;53.02;103040.66;4988392;28;20434;-71
2023/04/03 08:51:19;;;;;;;2.15;0.98;;;;;;;8.16;53.28;103036.38;4989564;28;20034;-71
2023/04/03 08:54:03;;;;;;;3.80;1.17;;;;;;;8.52;56.70;103048.50;4987775;28;20035;-71
2023/04/03 08:56:30;;;;;;;2.90;1.30;;;;;;;8.76;55.27;103046.88;4976075;28;20109;-72
2023/04/03 08:59:00;;;;;;;4.22;1.48;;;;;;;8.97;56.49;103038.03;4960383;28;20027;-72
2023/04/03 09:01:35;;;;;;;2.33;0.90;;;;;;;9.17;55.66;103038.59;4971781;28;20030;-72
2023/04/03 09:04:01;;;;;;;1.90;0.85;;;;;;;9.18;51.81;103055.91;4965751;28;20026;-72
2023/04/03 09:06:32;;;;;;;1.50;0.90;;;;;;;9.28;52.81;103045.47;4981064;28;20021;-71
2023/04/03 09:09:10;;;;;;;2.55;0.90;;;;;;;9.16;50.55;103041.94;4984749;28;20154;-72
2023/04/03 09:11:57;;;;;;;1.98;0.90;;;;;;;9.43;50.34;103045.66;4976202;28;20069;-71
2023/04/03 09:14:42;;;;;;;2.08;0.90;;;;;;;9.56;50.51;103050.03;4974603;28;20108;-71
2023/04/03 09:17:38;;;;;;;2.47;0.50;;;;;;;9.49;47.81;103047.78;4967990;28;20058;-72
2023/04/03 09:20:09;;;;;;;2.35;0.82;;;;;;;8.87;44.04;103049.34;4981131;28;20089;-71
2023/04/03 09:22:38;;;;;;;;;;;;;;;8.09;42.65;103048.69;4976628;28;20030;-72
2023/04/03 09:25:17;;;;;;;1.58;0.80;;;;;;;8.39;46.56;103060.47;4984804;28;19909;-71
2023/04/03 09:27:43;;;;;;;3.53;1.20;;;;;;;8.57;48.28;103042.03;4981390;28;20468;-72
2023/04/03 09:30:17;;;;;;;2.75;0.68;;;;;;;8.74;48.90;103050.16;4976119;28;20029;-72
2023/04/03 09:32:46;;;;;;;1.48;0.65;;;;;;;8.80;46.06;103053.19;4973420;28;20031;-72
2023/04/03 09:35:31;;;;;;;1.42;0.63;;;;;;;8.92;46.18;103044.56;4981834;28;20034;-72
2023/04/03 09:38:10;;;;;;;2.38;0.73;;;;;;;8.86;44.88;103051.06;4980546;28;20379;-72
2023/04/03 09:41:01;;;;;;;1.52;0.70;;;;;;;8.94;46.96;103050.75;4957356;28;20042;-71
2023/04/03 09:43:30;;;;;;;0.95;0.60;;;;;;;8.98;44.74;103037.22;4955516;28;20039;-71
2023/04/03 09:46:16;;;;;;;1.08;0.43;;;;;;;8.93;41.83;103047.25;4953511;28;20106;-72
2023/04/03 09:48:50;;;;;;;1.77;0.55;;;;;;;8.61;38.70;103050.91;4952164;28;20077;-72
2023/04/03 09:51:15;;;;;;;2.55;0.80;;;;;;;8.50;40.84;103031.97;4957449;28;20514;-72
2023/04/03 09:53:43;;;;;;;2.05;0.80;;;;;;;8.10;40.26;103040.13;4970880;28;20065;-71
2023/04/03 09:56:25;;;;;;;1.50;0.82;;;;;;;8.32;42.82;103036.63;4953983;28;20031;-71
2023/04/03 09:58:59;;;;;;;1.67;0.85;;;;;;;8.43;42.98;103020.28;4951750;28;20039;-72
2023/04/03 10:01:30;;;;;;;1.08;0.47;;;;;;;8.61;43.79;103033.72;4951179;28;20031;-72
2023/04/03 10:04:14;;;;;;;1.52;0.45;;;;;;;8.68;42.54;103024.75;4964639;28;20038;-71
2023/04/03 10:06:46;;;;;;;1.15;0.40;;;;;;;8.56;40.43;103018.66;4965555;28;20467;-71
2023/04/03 10:09:20;;;;;;;1.58;0.65;;;;;;;8.56;40.54;103026.41;4987651;28;20037;-73
2023/04/03 10:12:09;;;;;;;1.70;0.75;;;;;;;8.44;39.74;103022.06;4977600;28;20122;-71
2023/04/03 10:14:37;;;;;;;0.75;0.52;;;;;;;8.06;41.86;103013.16;4966609;28;20043;-73
2023/04/03 10:17:23;;;;;;;1.60;0.90;;;;;;;8.41;45.38;103016.66;4956944;28;20039;-72
2023/04/03 10:19:57;;;;;;;1.20;0.60;;;;;;;8.16;39.50;103020.88;4982461;28;20557;-72
2023/04/03 10:23:03;;;;;;;0.70;0.30;;;;;;;7.87;40.75;103016.91;4985140;28;20161;-72
2023/04/03 10:25:43;;;;;;;1.55;0.60;;;;;;;8.12;41.78;103012.75;4976240;28;20064;-73
2023/04/03 10:28:35;;;;;;;1.50;0.47;;;;;;;8.42;42.19;103028.78;4985315;28;20356;-74
2023/04/03 10:31:00;;;;;;;;;;;;;;;8.36;39.66;103016.34;4984087;28;20060;-73
2023/04/03 10:33:51;;;;;;;1.63;0.60;;;;;;;8.39;39.58;103003.63;4987654;28;19960;-74
2023/04/03 10:36:29;;;;;;;0.98;0.50;;;;;;;8.48;39.29;103002.53;4986987;28;20070;-74
2023/04/03 10:39:05;;;;;;;1.40;0.40;;;;;;;8.26;37.84;102991.47;4985123;28;20269;-74
2023/04/03 10:41:46;;;;;;;1.45;0.55;;;;;;;8.32;38.16;102983.28;4979619;28;20045;-74
2023/04/03 10:44:42;;;;;;;1.98;0.60;;;;;;;8.56;37.97;102983.38;4958095;28;20078;-74
2023/04/03 10:47:10;;;;;;;0.85;0.40;;;;;;;8.75;39.08;102979.56;4956801;28;20027;-73
2023/04/03 10:49:47;;;;;;;1.17;0.40;;;;;;;8.59;36.55;102978.44;4970530;28;20547;-74
2023/04/03 10:52:47;;;;;;;2.42;0.50;;;;;;;7.89;37.20;102980.91;4962224;28;20086;-73
2023/04/03 10:55:12;;;;;;;2.43;0.60;;;;;;;7.72;38.50;102969.28;4955877;28;20395;-74
2023/04/03 10:57:39;;;;;;;1.13;0.40;;;;;;;7.69;38.19;102977.66;4969120;28;20031;-74
2023/04/03 11:00:14;;;;;;;1.02;0.68;;;;;;;7.88;39.49;102966.19;4957438;28;20027;-73
2023/04/03 11:02:50;;;;;;;0.82;0.47;;;;;;;8.22;40.65;102957.53;4963439;28;20038;-74
2023/04/03 11:05:21;;;;;;;1.20;0.50;;;;;;;8.52;39.46;102973.56;4958879;28;20027;-74
2023/04/03 11:07:51;;;;;;;1.60;0.75;;;;;;;8.56;38.12;102959.22;4962800;28;20037;-74
2023/04/03 11:10:40;;;;;;;0.77;0.40;;;;;;;8.74;38.63;102959.69;4959441;28;20027;-74
2023/04/03 11:13:52;;;;;;;0.68;0.40;;;;;;;8.36;36.27;102953.41;4963964;28;20031;-74
2023/04/03 11:16:24;;;;;;;1.83;0.40;;;;;;;8.70;40.25;102962.81;4968831;28;20031;-74
2023/04/03 11:19:08;;;;;;;1.02;0.40;;;;;;;8.85;38.88;102956.16;4972107;28;20046;-74
2023/04/03 11:21:40;;;;;;;0.93;0.45;;;;;;;8.70;38.12;102957.63;4966949;28;20023;-74
2023/04/03 11:24:16;;;;;;;1.33;0.57;;;;;;;8.64;39.29;102956.41;4970187;28;20029;-74
2023/04/03 11:26:42;;;;;;;1.15;0.65;;;;;;;8.61;37.48;102945.84;4975693;28;20027;-74
2023/04/03 11:29:21;;;;;;;0.65;0.40;;;;;;;8.53;34.93;102949.50;4970408;28;20072;-73
2023/04/03 11:32:06;;;;;;;0.90;0.45;;;;;;;8.45;33.49;102946.34;4966534;28;20373;-74
2023/04/03 11:34:36;;;;;;;1.92;0.40;;;;;;;8.56;35.56;102944.63;4967845;28;20071;-74